Flight Track Log - Related Links

Times and Time Zones

All times are in EST time to prevent confusion due to time zone crossing. See the GJS3706 flight status page for this flight to view local times or setup timezone preferences in your user account.

Time Position Orientation Groundspeed Altitude Reporting Facility
EST Latitude Longitude Course Direction KTS MPH feet Rate Location/Type
Mon 10:00:00 PM 42.0167 -87.9333 86° East 147 169 2,700  Level Chicago TRACON
Mon 10:01:06 PM 42.0500 -87.9000 37° Northeast 208 239 4,700 2,091 Climbing Chicago TRACON
Mon 10:02:12 PM 42.1167 -87.8333 37° Northeast 257 296 7,300 2,497 Climbing Chicago TRACON
Mon 10:03:00 PM 42.1838 -87.2987 66° East  Level FlightAware Approximate
Mon 10:03:35 PM 42.1461 -87.7017 73° East 289 333 10,900  Level Chicago Center
Mon 10:04:00 PM 42.2354 -87.1439 66° East  Level FlightAware Approximate
Mon 10:04:36 PM 42.1694 -87.5914 74° East 303 349 12,900  Level Chicago Center
Mon 10:05:00 PM 42.2671 -86.9916 86° East  Level FlightAware Approximate
Mon 10:05:38 PM 42.1967 -87.4617 74° East 349 402 14,400  Level Chicago Center
Mon 10:06:39 PM 42.2253 -87.3239 74° East 375 432 16,500 1,623 Climbing Chicago Center
Mon 10:07:40 PM 42.2564 -87.1800 74° East 394 453 17,700 1,415 Climbing Chicago Center
Mon 10:08:42 PM 42.2828 -87.0297 77° East 409 471 19,400 1,854 Climbing Chicago Center
Mon 10:09:43 PM 42.2889 -86.8314 88° East 436 502 21,500 1,672 Climbing Chicago Center
Mon 10:10:44 PM 42.2950 -86.6786 87° East 441 507 22,800 1,415 Climbing Chicago Center
Mon 10:11:46 PM 42.3019 -86.5175 87° East 453 521 24,400 1,463 Climbing Chicago Center
Mon 10:12:47 PM 42.3086 -86.3472 87° East 457 526 25,800 1,328 Climbing Chicago Center
Mon 10:13:48 PM 42.3150 -86.1397 88° East 464 534 27,100 1,122 Climbing Chicago Center
Mon 10:14:50 PM 42.3147 -85.9594 90° East 480 552 28,100 976 Climbing Chicago Center
Mon 10:15:51 PM 42.3133 -85.7761 91° East 489 563 29,100 984 Climbing Chicago Center
Mon 10:16:52 PM 42.3100 -85.5908 91° East 495 570 30,100 976 Climbing Chicago Center
Mon 10:17:54 PM 42.3075 -85.4039 91° East 499 574 31,100 829 Climbing Chicago Center
Mon 10:18:55 PM 42.3047 -85.2153 91° East 504 580 31,800 639 Climbing Chicago Center
Mon 10:19:56 PM 42.3011 -85.0217 91° East 514 592 32,400 634 Climbing Chicago Center
Mon 10:20:58 PM 42.2969 -84.8244 92° East 525 604 33,100 927 Climbing Chicago Center
Mon 10:21:59 PM 42.2911 -84.5875 92° East 530 610 34,300 934 Climbing Chicago Center
Mon 10:23:00 PM 42.2994 -84.3914 87° East 528 608 35,000 661 Climbing Chicago Center
Mon 10:23:48 PM 42.3303 -84.2489 74° East 523 602 35,500 550 Climbing Cleveland Center
Mon 10:24:49 PM 42.3728 -84.0789 71° East 518 596 36,000 590 Climbing Cleveland Center
Mon 10:25:50 PM 42.4194 -83.8908 71° East 525 604 36,700 732 Climbing Cleveland Center
Mon 10:26:52 PM 42.4653 -83.7031 72° East 521 600 37,500 829 Climbing Cleveland Center
Mon 10:27:53 PM 42.5100 -83.5161 72° East 515 593 38,400 738 Climbing Cleveland Center
Mon 10:28:54 PM 42.5544 -83.3356 71° East 502 578 39,000 295 Climbing Cleveland Center
Mon 10:29:55 PM 42.6061 -83.1172 72° East 503 579 39,000  Level Cleveland Center
Mon 10:30:56 PM 42.6500 -82.9311 72° East 514 592 39,000  Level Cleveland Center
Mon 10:31:57 PM 42.6947 -82.7436 72° East 519 597 39,000  Level Cleveland Center
Mon 10:32:58 PM 42.7389 -82.5547 72° East 523 602 39,000  Level Cleveland Center
Mon 10:33:59 PM 42.7825 -82.3667 72° East 523 602 39,000  Level Cleveland Center
Mon 10:35:01 PM 42.8258 -82.1781 73° East 521 600 39,000  Level Cleveland Center
Mon 10:36:14 PM 42.8778 -81.9503 73° East 524 603 39,000  Level Cleveland Center
Mon 10:37:15 PM 42.9222 -81.7553 73° East 525 604 39,000  Level Cleveland Center
Mon 10:38:16 PM 42.9642 -81.5636 73° East 522 601 39,000  Level Cleveland Center
Mon 10:39:17 PM 43.0058 -81.3689 74° East 527 606 39,000  Level Cleveland Center
Mon 10:40:18 PM 43.0483 -81.1772 73° East 525 604 39,000  Level Cleveland Center
Mon 10:41:19 PM 43.0894 -80.9847 74° East 523 602 39,000  Level Cleveland Center
Mon 10:42:20 PM 43.1319 -80.7908 73° East 527 606 39,000  Level Cleveland Center
Mon 10:43:21 PM 43.1722 -80.5975 74° East 524 603 39,000  Level Cleveland Center
Mon 10:44:22 PM 43.2133 -80.4033 74° East 526 605 39,000  Level Cleveland Center
Mon 10:45:23 PM 43.2539 -80.2081 74° East 527 606 39,000  Level Cleveland Center
Mon 10:46:24 PM 43.2956 -80.0136 74° East 522 601 39,000  Level Cleveland Center
Mon 10:47:25 PM 43.3347 -79.8244 74° East 514 592 39,000  Level Cleveland Center
Mon 10:48:26 PM 43.3742 -79.6283 74° East 528 608 39,000  Level Cleveland Center
Mon 10:49:27 PM 43.4197 -79.3969 75° East 524 603 39,000  Level Cleveland Center
Mon 10:50:28 PM 43.4592 -79.2003 74° East 531 611 39,000  Level Cleveland Center
Mon 10:51:29 PM 43.4975 -79.0036 75° East 531 611 39,000  Level Cleveland Center
Mon 10:52:30 PM 43.5350 -78.8097 75° East 522 601 39,000  Level Cleveland Center
Mon 10:53:41 PM 43.5833 -78.5500 76° East 530 610 39,000  Level Toronto Center
Mon 10:54:40 PM 43.6000 -78.3667 83° East 530 610 39,000  Level Toronto Center
Mon 10:55:40 PM 43.6333 -78.1667 77° East 530 610 39,000  Level Toronto Center
Mon 10:56:40 PM 43.6833 -77.9667 71° East 530 610 39,000  Level Toronto Center
Mon 10:57:40 PM 43.7167 -77.7667 77° East 530 610 39,000  Level Toronto Center
Mon 10:58:40 PM 43.7500 -77.5833 76° East 530 610 39,000  Level Toronto Center
Mon 10:59:41 PM 43.7833 -77.3667 78° East 530 610 39,000  Level Toronto Center
Mon 11:00:40 PM 43.8167 -77.1833 76° East 530 610 39,000  Level Toronto Center
Mon 11:01:40 PM 43.8500 -76.9667 78° East 530 610 39,000  Level Toronto Center
Mon 11:02:40 PM 43.9000 -76.7833 69° East 540 621 39,000  Level Toronto Center
Mon 11:03:39 PM 43.9356 -76.6136 74° East 536 617 39,000  Level Boston Center
Mon 11:04:40 PM 43.9703 -76.4131 76° East 536 617 39,000  Level Boston Center
Mon 11:05:40 PM 44.0056 -76.2106 76° East 538 619 39,000 -694 Level Boston Center
Mon 11:06:41 PM 44.0381 -76.0083 77° East 537 618 37,600 -1,636 Descending Boston Center
Mon 11:07:41 PM 44.0694 -75.8189 77° East 513 590 35,700 -2,083 Descending Boston Center
Mon 11:08:42 PM 44.1011 -75.6333 77° East 497 572 33,400 -2,479 Descending Boston Center
Mon 11:09:42 PM 44.1308 -75.4442 78° East 498 573 30,700 -2,678 Descending Boston Center
Mon 11:10:43 PM 44.1603 -75.2572 78° East 495 570 28,000 -2,727 Descending Boston Center
Mon 11:11:43 PM 44.1900 -75.0750 77° East 486 559 25,200 -2,678 Descending Boston Center
Mon 11:12:44 PM 44.2167 -74.9019 78° East 463 533 22,600 -2,479 Descending Boston Center
Mon 11:13:44 PM 44.2417 -74.7372 78° East 437 503 20,200 -2,231 Descending Boston Center
Mon 11:14:45 PM 44.2647 -74.5822 78° East 411 473 18,100 -1,091 Descending Boston Center
Mon 11:15:45 PM 44.2878 -74.4356 78° East 389 448 18,000 -694 Descending Boston Center
Mon 11:16:46 PM 44.3089 -74.2872 79° East 389 448 16,700 -1,587 Descending Boston Center
Mon 11:17:46 PM 44.3314 -74.1386 78° East 392 451 14,800 -1,850 Descending Boston Center
Mon 11:18:46 PM 44.3608 -74.0044 73° East 388 447 13,000 -1,736 Descending Boston Center
Mon 11:19:47 PM 44.4019 -73.8797 65° Northeast 354 407 11,300 -1,388 Descending Boston Center
Mon 11:20:47 PM 44.4389 -73.7747 64° Northeast 300 345 10,200 -1,339 Descending Boston Center
Mon 11:21:48 PM 44.4689 -73.6733 67° East 285 328 8,600 -1,636 Descending Boston Center
Mon 11:22:48 PM 44.4992 -73.5781 66° East 272 313 6,900 -1,686 Descending Boston Center
Mon 11:23:49 PM 44.5286 -73.4844 66° East 264 304 5,200 -1,686 Descending Boston Center
Mon 11:24:49 PM 44.5569 -73.3972 65° Northeast 249 287 3,500 -1,450 Descending Boston Center
Mon 11:25:49 PM 44.5617 -73.3039 86° East 224 258 2,300 -694 Descending Boston Center
Mon 11:26:50 PM 44.5314 -73.2472 127° Southeast 170 196 2,100 -545 Descending Boston Center
Mon 11:27:50 PM 44.5053 -73.2053 131° Southeast 147 169 1,200 -843 Descending Boston Center
Mon 11:28:51 PM 44.4808 -73.1656 131° Southeast 138 159 400 -787 Descending Boston Center

Login

Don't have an account? Register now (free) for customized features, flight alerts, and more!